Time;durP1;ratioP1;P1;durP2;ratioP2;P2;SDS_P1;SDS_P2;PMS_P1;PMS_P2;Temp;Humidity;BMP_temperature;BMP_pressure;BME280_temperature;BME280_humidity;BME280_pressure;Samples;Min_cycle;Max_cycle;Signal;HPM_P1;HPM_P2
2023/08/31 00:00:56;;;;;;;9.23;6.50;;;;;;;;;;5031430;28;20046;-73
2023/08/31 00:03:24;;;;;;;7.95;6.15;;;;;;;;;;5032409;28;20403;-72
2023/08/31 00:05:51;;;;;;;8.45;6.30;;;;;;;;;;5032102;28;20049;-73
2023/08/31 00:08:17;;;;;;;10.02;6.50;;;;;;;;;;5032092;28;20045;-72
2023/08/31 00:10:45;;;;;;;9.02;5.97;;;;;;;;;;5031513;28;20045;-72
2023/08/31 00:13:12;;;;;;;10.35;6.28;;;;;;;;;;5031903;28;20049;-72
2023/08/31 00:15:38;;;;;;;7.50;6.18;;;;;;;;;;5031871;28;20046;-72
2023/08/31 00:18:05;;;;;;;8.73;5.97;;;;;;;;;;5032042;28;20129;-72
2023/08/31 00:20:34;;;;;;;12.38;5.53;;;;;;;;;;5030610;28;20491;-72
2023/08/31 00:23:00;;;;;;;7.75;5.38;;;;;;;;;;5032213;28;20053;-72
2023/08/31 00:25:28;;;;;;;8.10;5.32;;;;;;;;;;5030430;28;20060;-72
2023/08/31 00:27:54;;;;;;;7.93;5.70;;;;;;;;;;5031840;28;20049;-72
2023/08/31 00:30:21;;;;;;;7.70;5.07;;;;;;;;;;5030698;28;20080;-72
2023/08/31 00:32:48;;;;;;;6.25;4.90;;;;;;;;;;5032270;28;20056;-72
2023/08/31 00:35:15;;;;;;;8.32;4.80;;;;;;;;;;5031203;28;20423;-72
2023/08/31 00:37:43;;;;;;;7.95;5.03;;;;;;;;;;5031790;28;20281;-72
2023/08/31 00:40:13;;;;;;;6.32;5.35;;;;;;;;;;5030409;28;20042;-73
2023/08/31 00:42:40;;;;;;;7.63;5.05;;;;;;;;;;5031766;28;20057;-72
2023/08/31 00:45:08;;;;;;;9.00;5.28;;;;;;;;;;5031100;28;20742;-72
2023/08/31 00:47:34;;;;;;;6.70;5.25;;;;;;;;;;5031376;28;20073;-72
2023/08/31 00:50:02;;;;;;;6.97;5.20;;;;;;;;;;5030409;28;20073;-72
2023/08/31 00:52:28;;;;;;;7.20;5.00;;;;;;;;;;5031347;28;20100;-72
2023/08/31 00:54:56;;;;;;;8.50;5.43;;;;;;;;;;5030974;28;20516;-72
2023/08/31 00:57:26;;;;;;;7.28;4.82;;;;;;;;;;5031706;28;20052;-72
2023/08/31 00:59:52;;;;;;;7.88;4.80;;;;;;;;;;5029949;28;20107;-72
2023/08/31 01:02:23;;;;;;;10.07;4.93;;;;;;;;;;5030967;28;20055;-72
2023/08/31 01:04:59;;;;;;;6.00;4.15;;;;;;;;;;5031285;28;20056;-72
2023/08/31 01:07:37;;;;;;;7.45;4.78;;;;;;;;;;5031049;28;20051;-72
2023/08/31 01:10:13;;;;;;;7.53;5.47;;;;;;;;;;5029875;28;20046;-72
2023/08/31 01:12:45;;;;;;;7.50;4.38;;;;;;;;;;5031089;28;20049;-72
2023/08/31 01:15:12;;;;;;;10.90;4.53;;;;;;;;;;5030762;28;20230;-72
2023/08/31 01:17:42;;;;;;;9.65;4.00;;;;;;;;;;5030962;28;20491;-72
2023/08/31 01:20:12;;;;;;;7.35;4.63;;;;;;;;;;5029819;28;20041;-72
2023/08/31 01:22:41;;;;;;;7.63;4.38;;;;;;;;;;5030739;28;20052;-72
2023/08/31 01:25:09;;;;;;;6.60;4.28;;;;;;;;;;5030561;28;20049;-72
2023/08/31 01:27:37;;;;;;;6.47;4.43;;;;;;;;;;5030451;28;20396;-72
2023/08/31 01:30:04;;;;;;;14.48;4.70;;;;;;;;;;5029825;28;20049;-72
2023/08/31 01:32:31;;;;;;;8.93;5.00;;;;;;;;;;5030082;28;20056;-72
2023/08/31 01:34:58;;;;;;;8.07;4.15;;;;;;;;;;5030411;28;20050;-72
2023/08/31 01:37:32;;;;;;;6.68;4.10;;;;;;;;;;5029943;28;20053;-72
2023/08/31 01:40:05;;;;;;;11.00;4.85;;;;;;;;;;5029758;28;20049;-72
2023/08/31 01:42:33;;;;;;;6.50;3.60;;;;;;;;;;5030369;28;20057;-72
2023/08/31 01:45:02;;;;;;;6.90;4.18;;;;;;;;;;5030504;28;20060;-72
2023/08/31 01:47:29;;;;;;;9.30;4.63;;;;;;;;;;5030437;28;20518;-72
2023/08/31 01:49:56;;;;;;;7.05;4.88;;;;;;;;;;5029541;28;20068;-72
2023/08/31 01:52:23;;;;;;;8.68;4.47;;;;;;;;;;5029873;28;20107;-72
2023/08/31 01:54:49;;;;;;;6.68;4.45;;;;;;;;;;5030469;28;20049;-72
2023/08/31 01:57:16;;;;;;;7.68;4.32;;;;;;;;;;5029994;28;20048;-72
2023/08/31 01:59:44;;;;;;;8.77;4.10;;;;;;;;;;5029412;28;20045;-71
2023/08/31 02:02:10;;;;;;;9.77;4.55;;;;;;;;;;5029873;28;20049;-72
2023/08/31 02:04:37;;;;;;;9.57;5.07;;;;;;;;;;5030116;28;20045;-72
2023/08/31 02:07:03;;;;;;;6.95;4.72;;;;;;;;;;5029794;28;20049;-72
2023/08/31 02:09:30;;;;;;;8.93;4.32;;;;;;;;;;5029342;28;20056;-72
2023/08/31 02:11:57;;;;;;;11.10;4.40;;;;;;;;;;5030071;28;20049;-72
2023/08/31 02:14:23;;;;;;;8.68;4.43;;;;;;;;;;5030371;28;20045;-72
2023/08/31 02:16:51;;;;;;;8.68;4.20;;;;;;;;;;5029808;28;20056;-72
2023/08/31 02:19:18;;;;;;;8.13;4.60;;;;;;;;;;5029674;28;20056;-72
2023/08/31 02:21:44;;;;;;;14.52;4.40;;;;;;;;;;5029160;28;20046;-71
2023/08/31 02:24:11;;;;;;;13.68;4.32;;;;;;;;;;5029889;28;20300;-72
2023/08/31 02:26:38;;;;;;;6.30;4.28;;;;;;;;;;5029875;28;20056;-71
2023/08/31 02:29:05;;;;;;;9.55;4.07;;;;;;;;;;5029648;28;20056;-72
2023/08/31 02:31:31;;;;;;;9.82;4.32;;;;;;;;;;5029253;28;20491;-72
2023/08/31 02:33:59;;;;;;;7.38;4.25;;;;;;;;;;5029639;28;20052;-71
2023/08/31 02:36:26;;;;;;;11.43;4.20;;;;;;;;;;5030005;28;20414;-72
2023/08/31 02:38:53;;;;;;;10.00;4.13;;;;;;;;;;5029731;28;20055;-71
2023/08/31 02:41:19;;;;;;;9.27;4.47;;;;;;;;;;5029090;28;20052;-72
2023/08/31 02:43:46;;;;;;;7.82;4.25;;;;;;;;;;5029551;28;20049;-72
2023/08/31 02:46:12;;;;;;;7.55;3.92;;;;;;;;;;5029776;28;20069;-72
2023/08/31 02:48:39;;;;;;;9.48;4.07;;;;;;;;;;5030046;28;20045;-72
2023/08/31 02:51:07;;;;;;;11.02;4.20;;;;;;;;;;5032814;28;20053;-71
2023/08/31 02:53:33;;;;;;;12.93;4.15;;;;;;;;;;5033586;28;20513;-71
2023/08/31 02:56:00;;;;;;;8.13;4.10;;;;;;;;;;5033429;28;20045;-72
2023/08/31 02:58:27;;;;;;;12.30;4.38;;;;;;;;;;5033314;28;20088;-72
2023/08/31 03:00:53;;;;;;;6.32;4.25;;;;;;;;;;5032457;28;20046;-72
2023/08/31 03:03:20;;;;;;;6.22;3.85;;;;;;;;;;5033075;28;20052;-72
2023/08/31 03:05:47;;;;;;;9.10;4.18;;;;;;;;;;5033385;28;20049;-71
2023/08/31 03:08:15;;;;;;;7.22;3.53;;;;;;;;;;5033438;28;20045;-72
2023/08/31 03:10:41;;;;;;;8.70;4.22;;;;;;;;;;5032108;28;20049;-72
2023/08/31 03:13:08;;;;;;;11.25;4.63;;;;;;;;;;5033248;28;20048;-72
2023/08/31 03:15:35;;;;;;;9.18;4.20;;;;;;;;;;5032833;28;20505;-72
2023/08/31 03:18:01;;;;;;;9.23;3.95;;;;;;;;;;5033491;28;20046;-72
2023/08/31 03:20:28;;;;;;;9.13;4.85;;;;;;;;;;5032407;28;20085;-72
2023/08/31 03:22:54;;;;;;;7.65;4.13;;;;;;;;;;5033636;28;20041;-72
2023/08/31 03:25:22;;;;;;;12.10;5.05;;;;;;;;;;5032815;28;20049;-72
2023/08/31 03:27:49;;;;;;;11.50;5.25;;;;;;;;;;5032933;28;20053;-72
2023/08/31 03:30:15;;;;;;;11.75;4.72;;;;;;;;;;5031599;28;20053;-72
2023/08/31 03:32:43;;;;;;;12.07;5.35;;;;;;;;;;5033001;28;20049;-72
2023/08/31 03:35:10;;;;;;;10.85;5.00;;;;;;;;;;5032370;28;20096;-72
2023/08/31 03:37:36;;;;;;;13.77;4.68;;;;;;;;;;5032770;28;20059;-72
2023/08/31 03:40:04;;;;;;;11.20;5.18;;;;;;;;;;5031481;28;20041;-72
2023/08/31 03:42:32;;;;;;;10.13;4.90;;;;;;;;;;5032581;28;20060;-72
2023/08/31 03:44:58;;;;;;;15.70;4.93;;;;;;;;;;5032498;28;20495;-71
2023/08/31 03:47:25;;;;;;;10.88;4.75;;;;;;;;;;5032849;28;20049;-72
2023/08/31 03:49:52;;;;;;;8.07;4.50;;;;;;;;;;5031318;28;20061;-71
2023/08/31 03:52:18;;;;;;;8.15;4.70;;;;;;;;;;5032359;28;20056;-72
2023/08/31 03:54:45;;;;;;;9.63;4.68;;;;;;;;;;5032122;28;20045;-72
2023/08/31 03:57:11;;;;;;;11.07;5.15;;;;;;;;;;5031994;28;20053;-71
2023/08/31 03:59:39;;;;;;;10.40;5.05;;;;;;;;;;5031289;28;20095;-72
2023/08/31 04:02:06;;;;;;;10.68;4.65;;;;;;;;;;5031925;28;20049;-72
2023/08/31 04:04:33;;;;;;;11.57;4.63;;;;;;;;;;5032196;28;20053;-72
2023/08/31 04:07:00;;;;;;;8.82;4.75;;;;;;;;;;5032056;28;20491;-72
2023/08/31 04:09:27;;;;;;;10.23;4.90;;;;;;;;;;5031724;28;20431;-72
2023/08/31 04:11:54;;;;;;;10.95;5.03;;;;;;;;;;5031505;28;20517;-72
2023/08/31 04:14:20;;;;;;;11.15;5.32;;;;;;;;;;5032245;28;20045;-72
2023/08/31 04:16:50;;;;;;;10.50;5.25;;;;;;;;;;5031638;28;20341;-72
2023/08/31 04:19:16;;;;;;;12.20;4.25;;;;;;;;;;5031914;28;20132;-72
2023/08/31 04:21:43;;;;;;;9.50;3.97;;;;;;;;;;5030943;28;20510;-72
2023/08/31 04:24:10;;;;;;;9.43;4.57;;;;;;;;;;5031787;28;20046;-72
2023/08/31 04:26:36;;;;;;;9.18;4.50;;;;;;;;;;5031725;28;20053;-69
2023/08/31 04:29:05;;;;;;;5.50;4.05;;;;;;;;;;5032334;28;20415;-69
2023/08/31 04:31:31;;;;;;;7.10;4.15;;;;;;;;;;5031650;28;20133;-68
2023/08/31 04:33:59;;;;;;;7.18;4.22;;;;;;;;;;5031983;28;20041;-69
2023/08/31 04:36:26;;;;;;;8.75;4.68;;;;;;;;;;5031745;28;20045;-69
2023/08/31 04:38:53;;;;;;;7.97;4.22;;;;;;;;;;5031906;28;20107;-70
2023/08/31 04:41:19;;;;;;;8.52;4.40;;;;;;;;;;5030962;28;20049;-68
2023/08/31 04:43:47;;;;;;;7.18;4.45;;;;;;;;;;5031572;28;20054;-68
2023/08/31 04:46:14;;;;;;;7.43;4.30;;;;;;;;;;5031567;28;20104;-69
2023/08/31 04:48:40;;;;;;;8.55;4.65;;;;;;;;;;5031167;28;20056;-69
2023/08/31 04:51:28;;;;;;;8.35;4.60;;;;;;;;;;5030883;28;20049;-69
2023/08/31 04:53:55;;;;;;;6.05;4.20;;;;;;;;;;5031059;28;20052;-69
2023/08/31 04:56:21;;;;;;;10.23;4.60;;;;;;;;;;5031050;28;20055;-69
2023/08/31 04:58:48;;;;;;;7.70;4.28;;;;;;;;;;5030824;28;20053;-69
2023/08/31 05:01:15;;;;;;;6.80;3.83;;;;;;;;;;5030731;28;20045;-69
2023/08/31 05:03:42;;;;;;;12.23;4.53;;;;;;;;;;5030790;28;20136;-69
2023/08/31 05:06:10;;;;;;;13.55;4.40;;;;;;;;;;5030914;28;20050;-69
2023/08/31 05:08:37;;;;;;;7.45;3.70;;;;;;;;;;5030626;28;20052;-68
2023/08/31 05:11:03;;;;;;;8.52;4.45;;;;;;;;;;5030399;28;20046;-69
2023/08/31 05:13:30;;;;;;;9.55;4.28;;;;;;;;;;5031001;28;20042;-69
2023/08/31 05:15:56;;;;;;;7.05;4.00;;;;;;;;;;5030861;28;20499;-69
2023/08/31 05:18:23;;;;;;;7.18;3.83;;;;;;;;;;5030484;28;20214;-69
2023/08/31 05:20:49;;;;;;;7.40;4.32;;;;;;;;;;5030760;28;20053;-68
2023/08/31 05:23:17;;;;;;;8.70;5.03;;;;;;;;;;5030640;28;20049;-69
2023/08/31 05:25:44;;;;;;;9.88;4.40;;;;;;;;;;5030656;28;20051;-69
2023/08/31 05:28:11;;;;;;;8.30;4.50;;;;;;;;;;5030532;28;20049;-69
2023/08/31 05:30:37;;;;;;;7.13;4.28;;;;;;;;;;5030691;28;20045;-69
2023/08/31 05:33:04;;;;;;;7.20;4.10;;;;;;;;;;5030381;28;20080;-69
2023/08/31 05:35:31;;;;;;;9.90;4.22;;;;;;;;;;5031063;28;20045;-69
2023/08/31 05:37:58;;;;;;;8.88;4.43;;;;;;;;;;5030354;28;20045;-69
2023/08/31 05:40:26;;;;;;;8.63;4.18;;;;;;;;;;5030538;28;20045;-69
2023/08/31 05:42:52;;;;;;;7.75;4.45;;;;;;;;;;5030646;28;20045;-69
2023/08/31 05:45:19;;;;;;;8.77;4.53;;;;;;;;;;5030314;28;20051;-69
2023/08/31 05:47:45;;;;;;;11.07;4.32;;;;;;;;;;5030174;28;20050;-68
2023/08/31 05:50:12;;;;;;;7.45;4.18;;;;;;;;;;5030100;28;20055;-68
2023/08/31 05:52:43;;;;;;;8.45;4.30;;;;;;;;;;5030722;28;20081;-69
2023/08/31 05:55:10;;;;;;;10.00;4.10;;;;;;;;;;5030402;28;20049;-69
2023/08/31 05:57:38;;;;;;;5.90;4.32;;;;;;;;;;5030615;28;20056;-69
2023/08/31 06:00:07;;;;;;;7.55;4.35;;;;;;;;;;5029512;28;20041;-69
2023/08/31 06:02:33;;;;;;;5.95;3.83;;;;;;;;;;5030395;28;20054;-69
2023/08/31 06:05:00;;;;;;;9.38;4.30;;;;;;;;;;5030053;28;20050;-68
2023/08/31 06:07:28;;;;;;;7.55;4.07;;;;;;;;;;5030472;28;20057;-69
2023/08/31 06:09:55;;;;;;;8.07;3.78;;;;;;;;;;5029458;28;20507;-69
2023/08/31 06:12:22;;;;;;;4.95;3.25;;;;;;;;;;5030090;28;20060;-69
2023/08/31 06:14:50;;;;;;;6.15;3.88;;;;;;;;;;5029713;28;20492;-69
2023/08/31 06:17:16;;;;;;;7.10;3.50;;;;;;;;;;5029895;28;20056;-69
2023/08/31 06:19:43;;;;;;;5.28;3.17;;;;;;;;;;5029368;28;20407;-69
2023/08/31 06:22:10;;;;;;;8.10;3.65;;;;;;;;;;5029912;28;20045;-69
2023/08/31 06:24:36;;;;;;;7.28;3.65;;;;;;;;;;5033982;28;20493;-69
2023/08/31 06:27:03;;;;;;;7.60;3.85;;;;;;;;;;5033897;28;20465;-69
2023/08/31 06:29:30;;;;;;;6.68;3.50;;;;;;;;;;5033042;28;20132;-68
2023/08/31 06:31:58;;;;;;;7.38;3.42;;;;;;;;;;5033770;28;20056;-69
2023/08/31 06:34:24;;;;;;;7.35;3.78;;;;;;;;;;5034244;28;20045;-69
2023/08/31 06:36:51;;;;;;;11.38;4.07;;;;;;;;;;5033467;28;20140;-69
2023/08/31 06:39:17;;;;;;;9.73;3.28;;;;;;;;;;5034275;28;20407;-69
2023/08/31 06:41:44;;;;;;;8.30;3.50;;;;;;;;;;5033704;28;20060;-69
2023/08/31 06:44:10;;;;;;;8.07;3.40;;;;;;;;;;5034174;28;20041;-69
2023/08/31 06:46:38;;;;;;;6.78;3.40;;;;;;;;;;5033931;28;20053;-68
2023/08/31 06:49:06;;;;;;;6.97;3.20;;;;;;;;;;5034230;28;20381;-68
2023/08/31 06:51:33;;;;;;;8.30;3.40;;;;;;;;;;5033012;28;20051;-69
2023/08/31 06:54:05;;;;;;;6.80;3.20;;;;;;;;;;5033689;28;20049;-69
2023/08/31 06:56:32;;;;;;;9.00;2.70;;;;;;;;;;5032993;28;20099;-69
2023/08/31 06:58:59;;;;;;;4.20;2.95;;;;;;;;;;5033352;28;20370;-68
2023/08/31 07:01:26;;;;;;;7.20;3.40;;;;;;;;;;5032767;28;20045;-69
2023/08/31 07:03:53;;;;;;;5.90;2.97;;;;;;;;;;5033309;28;20127;-69
2023/08/31 07:06:21;;;;;;;4.45;2.60;;;;;;;;;;5032961;28;20529;-69
2023/08/31 07:08:48;;;;;;;7.93;3.30;;;;;;;;;;5033253;28;20045;-69
2023/08/31 07:11:15;;;;;;;4.68;2.90;;;;;;;;;;5032427;28;20421;-69
2023/08/31 07:13:42;;;;;;;5.63;2.70;;;;;;;;;;5033412;28;20052;-69
2023/08/31 07:16:09;;;;;;;8.32;3.30;;;;;;;;;;5032885;28;20049;-69
2023/08/31 07:18:36;;;;;;;4.95;2.58;;;;;;;;;;5032954;28;20491;-69
2023/08/31 07:21:02;;;;;;;5.65;2.47;;;;;;;;;;5032399;28;20048;-69
2023/08/31 07:23:32;;;;;;;5.72;2.42;;;;;;;;;;5032904;28;20046;-69
2023/08/31 07:25:59;;;;;;;7.93;4.25;;;;;;;;;;5033147;28;20041;-69
2023/08/31 07:28:26;;;;;;;9.10;6.00;;;;;;;;;;5032947;28;20049;-69
2023/08/31 07:31:01;;;;;;;6.43;2.35;;;;;;;;;;5032683;28;20042;-69
2023/08/31 07:33:28;;;;;;;6.07;2.72;;;;;;;;;;5032542;28;20055;-69
2023/08/31 07:35:54;;;;;;;3.80;2.45;;;;;;;;;;5032531;28;20415;-69
2023/08/31 07:38:21;;;;;;;4.28;2.20;;;;;;;;;;5032424;28;20049;-69
2023/08/31 07:40:49;;;;;;;5.75;2.85;;;;;;;;;;5032332;28;20535;-69
2023/08/31 07:43:16;;;;;;;8.07;2.95;;;;;;;;;;5032737;28;20068;-69
2023/08/31 07:45:42;;;;;;;5.05;2.28;;;;;;;;;;5032748;28;20133;-69
2023/08/31 07:48:09;;;;;;;5.88;2.47;;;;;;;;;;5032469;28;20054;-69
2023/08/31 07:50:35;;;;;;;4.00;2.25;;;;;;;;;;5032223;28;20510;-69
2023/08/31 07:53:03;;;;;;;4.55;2.35;;;;;;;;;;5032993;28;20590;-69
2023/08/31 07:55:29;;;;;;;4.15;2.38;;;;;;;;;;5033046;28;20056;-70
2023/08/31 07:57:57;;;;;;;6.68;2.85;;;;;;;;;;5032542;28;20052;-70
2023/08/31 08:00:24;;;;;;;4.45;2.25;;;;;;;;;;5029659;28;20058;-70
2023/08/31 08:02:50;;;;;;;4.60;2.40;;;;;;;;;;5027602;28;20141;-70
2023/08/31 08:05:18;;;;;;;8.00;2.83;;;;;;;;;;5031209;28;20049;-70
2023/08/31 08:07:44;;;;;;;5.60;2.30;;;;;;;;;;5031696;28;20414;-68
2023/08/31 08:10:13;;;;;;;6.72;2.00;;;;;;;;;;5029468;28;20046;-68
2023/08/31 08:12:40;;;;;;;5.70;2.33;;;;;;;;;;5031784;28;20109;-68
2023/08/31 08:15:08;;;;;;;4.55;2.05;;;;;;;;;;5030745;28;20577;-68
2023/08/31 08:17:35;;;;;;;6.70;2.65;;;;;;;;;;5028654;28;20567;-68
2023/08/31 08:20:03;;;;;;;6.32;2.17;;;;;;;;;;5031112;28;20088;-67
2023/08/31 08:22:30;;;;;;;6.55;2.22;;;;;;;;;;5031856;28;20045;-68
2023/08/31 08:24:56;;;;;;;9.45;1.95;;;;;;;;;;5031698;28;20044;-66
2023/08/31 08:27:23;;;;;;;5.25;2.00;;;;;;;;;;5021841;28;20075;-68
2023/08/31 08:29:49;;;;;;;6.32;2.08;;;;;;;;;;5029208;28;20388;-68
2023/08/31 08:32:17;;;;;;;7.53;2.30;;;;;;;;;;5029158;28;20079;-68
2023/08/31 08:34:44;;;;;;;6.55;2.28;;;;;;;;;;5031412;28;20515;-69
2023/08/31 08:37:10;;;;;;;3.75;2.00;;;;;;;;;;5030808;28;20045;-69
2023/08/31 08:39:37;;;;;;;7.10;2.47;;;;;;;;;;5029826;28;20045;-68
2023/08/31 08:42:05;;;;;;;3.90;1.95;;;;;;;;;;5031283;28;20049;-69
2023/08/31 08:44:33;;;;;;;4.88;2.25;;;;;;;;;;5030418;28;20489;-69
2023/08/31 08:47:00;;;;;;;3.08;1.42;;;;;;;;;;5030255;28;20072;-69
2023/08/31 08:49:31;;;;;;;5.28;1.75;;;;;;;;;;5027720;28;20052;-68
2023/08/31 08:51:58;;;;;;;5.78;1.98;;;;;;;;;;5030150;28;20060;-69
2023/08/31 08:54:25;;;;;;;3.40;1.58;;;;;;;;;;5030823;28;20507;-69
2023/08/31 08:56:52;;;;;;;6.57;2.03;;;;;;;;;;5024124;28;20132;-69
2023/08/31 08:59:18;;;;;;;5.22;1.75;;;;;;;;;;5030192;28;20064;-69
2023/08/31 09:01:46;;;;;;;5.68;1.88;;;;;;;;;;5028453;28;20495;-69
2023/08/31 09:04:14;;;;;;;3.63;1.70;;;;;;;;;;5030998;28;20055;-69
2023/08/31 09:06:42;;;;;;;5.97;1.60;;;;;;;;;;5030167;28;20334;-69
2023/08/31 09:09:09;;;;;;;5.72;1.95;;;;;;;;;;5028946;28;20416;-70
2023/08/31 09:11:36;;;;;;;4.53;1.90;;;;;;;;;;5028887;28;20045;-70
2023/08/31 09:14:15;;;;;;;2.85;1.52;;;;;;;;;;5029136;28;20151;-69
2023/08/31 09:16:45;;;;;;;5.30;1.85;;;;;;;;;;5029280;28;20045;-69
2023/08/31 09:19:19;;;;;;;3.33;2.08;;;;;;;;;;5028797;28;20051;-70
2023/08/31 09:21:48;;;;;;;5.63;1.70;;;;;;;;;;5027730;28;20048;-70
2023/08/31 09:24:14;;;;;;;3.85;1.67;;;;;;;;;;5028756;28;20508;-70
2023/08/31 09:26:44;;;;;;;3.30;1.85;;;;;;;;;;5021716;28;20426;-69
2023/08/31 09:29:12;;;;;;;2.40;1.70;;;;;;;;;;5026993;28;20507;-70
2023/08/31 09:31:38;;;;;;;2.83;1.45;;;;;;;;;;5029333;28;20050;-70
2023/08/31 09:34:05;;;;;;;3.63;1.67;;;;;;;;;;5029675;28;20055;-70
2023/08/31 09:36:32;;;;;;;8.25;2.00;;;;;;;;;;5029876;28;20052;-70
2023/08/31 09:39:00;;;;;;;5.70;1.98;;;;;;;;;;5029005;28;20136;-70
2023/08/31 09:41:27;;;;;;;4.68;1.70;;;;;;;;;;5023498;28;20048;-70
2023/08/31 09:43:53;;;;;;;4.95;1.60;;;;;;;;;;5009577;28;20050;-70
2023/08/31 09:46:21;;;;;;;4.45;1.83;;;;;;;;;;5013404;28;20052;-70
2023/08/31 09:48:48;;;;;;;5.65;1.80;;;;;;;;;;5029044;28;20136;-69
2023/08/31 09:51:19;;;;;;;3.70;1.98;;;;;;;;;;5027486;28;20492;-71
2023/08/31 09:53:50;;;;;;;2.72;2.00;;;;;;;;;;5023006;28;20502;-70
2023/08/31 09:56:22;;;;;;;4.55;1.83;;;;;;;;;;5022048;28;20052;-70
2023/08/31 09:58:49;;;;;;;3.67;2.00;;;;;;;;;;5024905;28;20106;-70
2023/08/31 10:01:17;;;;;;;3.38;1.75;;;;;;;;;;5022931;28;20420;-70
2023/08/31 10:03:44;;;;;;;4.57;1.92;;;;;;;;;;5017034;28;20037;-70
2023/08/31 10:06:12;;;;;;;3.08;1.75;;;;;;;;;;5020686;28;20049;-70
2023/08/31 10:08:39;;;;;;;8.85;2.17;;;;;;;;;;5023182;28;20140;-70
2023/08/31 10:11:07;;;;;;;7.05;2.28;;;;;;;;;;5023629;28;20056;-70
2023/08/31 10:13:37;;;;;;;4.07;1.48;;;;;;;;;;5023844;28;20048;-70
2023/08/31 10:16:05;;;;;;;6.38;1.60;;;;;;;;;;5026753;28;20041;-70
2023/08/31 10:18:35;;;;;;;6.57;1.83;;;;;;;;;;5024447;28;20051;-70
2023/08/31 10:21:02;;;;;;;6.50;1.58;;;;;;;;;;5025133;28;20484;-70
2023/08/31 10:23:29;;;;;;;4.22;1.75;;;;;;;;;;5026681;28;20046;-69
2023/08/31 10:26:03;;;;;;;3.65;1.40;;;;;;;;;;5023019;28;20340;-68
2023/08/31 10:28:30;;;;;;;3.03;1.10;;;;;;;;;;5021186;28;20049;-68
2023/08/31 10:31:05;;;;;;;4.43;1.75;;;;;;;;;;5017696;28;20045;-68
2023/08/31 10:33:33;;;;;;;4.90;1.70;;;;;;;;;;5019005;28;20599;-66
2023/08/31 10:36:00;;;;;;;5.38;1.48;;;;;;;;;;5021505;28;20049;-70
2023/08/31 10:38:30;;;;;;;6.22;1.60;;;;;;;;;;5018193;28;20050;-69
2023/08/31 10:41:02;;;;;;;3.67;1.38;;;;;;;;;;5017818;28;20049;-68
2023/08/31 10:43:43;;;;;;;5.15;1.83;;;;;;;;;;5022362;28;20053;-69
2023/08/31 10:46:34;;;;;;;3.63;1.40;;;;;;;;;;5026330;28;20389;-69
2023/08/31 10:49:03;;;;;;;2.75;1.40;;;;;;;;;;5028152;28;20077;-69
2023/08/31 10:51:31;;;;;;;5.63;1.85;;;;;;;;;;5028541;28;20049;-69
2023/08/31 10:54:13;;;;;;;5.40;1.77;;;;;;;;;;5029194;28;20072;-69
2023/08/31 10:57:06;;;;;;;7.77;2.03;;;;;;;;;;5029796;28;20462;-69
2023/08/31 10:59:45;;;;;;;4.88;1.70;;;;;;;;;;5028097;28;20393;-68
2023/08/31 11:02:28;;;;;;;8.27;1.65;;;;;;;;;;5029083;28;20064;-68
2023/08/31 11:04:56;;;;;;;2.90;1.55;;;;;;;;;;5029033;28;20041;-69
2023/08/31 11:07:25;;;;;;;3.90;1.50;;;;;;;;;;5029786;28;20053;-68
2023/08/31 11:09:52;;;;;;;4.32;1.60;;;;;;;;;;5029324;28;20049;-69
2023/08/31 11:12:23;;;;;;;3.63;1.27;;;;;;;;;;5032833;28;20115;-69
2023/08/31 11:14:50;;;;;;;3.80;1.50;;;;;;;;;;5032631;28;20050;-68
2023/08/31 11:17:18;;;;;;;5.82;1.67;;;;;;;;;;5032731;28;20048;-70
2023/08/31 11:19:45;;;;;;;3.75;1.50;;;;;;;;;;5031984;28;20415;-69
2023/08/31 11:22:12;;;;;;;3.42;1.50;;;;;;;;;;5032422;28;20051;-69
2023/08/31 11:24:38;;;;;;;5.30;1.92;;;;;;;;;;5032949;28;20045;-69
2023/08/31 11:27:08;;;;;;;5.53;1.95;;;;;;;;;;5032075;28;20054;-69
2023/08/31 11:29:38;;;;;;;5.80;1.80;;;;;;;;;;5022723;28;20483;-68
2023/08/31 11:32:05;;;;;;;4.60;1.67;;;;;;;;;;5027539;28;20037;-69
2023/08/31 11:34:33;;;;;;;3.85;1.73;;;;;;;;;;5026709;28;20053;-69
2023/08/31 11:36:59;;;;;;;4.90;1.48;;;;;;;;;;5030989;28;20048;-69
2023/08/31 11:39:26;;;;;;;2.88;1.48;;;;;;;;;;5031979;28;20484;-68
2023/08/31 11:41:53;;;;;;;5.85;1.80;;;;;;;;;;5031136;28;20050;-68
2023/08/31 11:44:20;;;;;;;6.20;1.58;;;;;;;;;;5031951;28;20056;-68
2023/08/31 11:46:49;;;;;;;3.53;1.60;;;;;;;;;;5032524;28;20046;-68
2023/08/31 11:49:16;;;;;;;3.38;1.63;;;;;;;;;;5030472;28;20045;-68
2023/08/31 11:51:45;;;;;;;5.45;1.40;;;;;;;;;;5031464;28;20049;-69
2023/08/31 11:54:12;;;;;;;6.07;1.85;;;;;;;;;;5031959;28;20148;-69
2023/08/31 11:56:42;;;;;;;3.42;1.50;;;;;;;;;;5032244;28;20056;-69
2023/08/31 11:59:11;;;;;;;5.72;1.80;;;;;;;;;;5031636;28;20124;-69
2023/08/31 12:01:40;;;;;;;2.75;1.48;;;;;;;;;;5031086;28;20056;-68
2023/08/31 12:04:14;;;;;;;5.90;1.77;;;;;;;;;;5030097;28;20511;-68
2023/08/31 12:06:41;;;;;;;5.85;1.83;;;;;;;;;;5030535;28;20418;-69
2023/08/31 12:09:09;;;;;;;4.93;1.80;;;;;;;;;;5031782;28;20526;-69
2023/08/31 12:11:36;;;;;;;6.22;2.00;;;;;;;;;;5031460;28;20052;-69
2023/08/31 12:14:04;;;;;;;6.18;1.70;;;;;;;;;;5031666;28;20050;-68
2023/08/31 12:16:36;;;;;;;5.70;1.75;;;;;;;;;;5031863;28;20073;-68
2023/08/31 12:19:04;;;;;;;6.47;1.70;;;;;;;;;;5031378;28;20100;-67
2023/08/31 12:21:31;;;;;;;3.92;1.33;;;;;;;;;;5030406;28;20052;-68
2023/08/31 12:23:58;;;;;;;5.40;1.70;;;;;;;;;;5031705;28;20488;-68
2023/08/31 12:26:26;;;;;;;4.50;1.50;;;;;;;;;;5030934;28;20045;-69
2023/08/31 12:28:53;;;;;;;4.15;1.40;;;;;;;;;;5030633;28;20046;-69
2023/08/31 12:31:19;;;;;;;3.55;1.48;;;;;;;;;;5024556;28;20440;-68
2023/08/31 12:33:46;;;;;;;6.07;2.33;;;;;;;;;;5026358;28;20041;-68
2023/08/31 12:36:13;;;;;;;8.30;1.70;;;;;;;;;;5025855;28;20073;-69
2023/08/31 12:38:40;;;;;;;4.35;1.60;;;;;;;;;;5026940;28;20041;-68
2023/08/31 12:41:06;;;;;;;4.20;1.35;;;;;;;;;;5024807;28;20047;-68
2023/08/31 12:43:34;;;;;;;5.75;1.90;;;;;;;;;;5026679;28;20422;-68
2023/08/31 12:46:05;;;;;;;5.63;1.73;;;;;;;;;;5023243;28;20510;-68
2023/08/31 12:48:32;;;;;;;4.90;1.73;;;;;;;;;;5025026;28;20053;-68
2023/08/31 12:50:59;;;;;;;4.38;1.73;;;;;;;;;;5026312;28;20100;-68
2023/08/31 12:53:25;;;;;;;4.25;1.83;;;;;;;;;;5025583;28;20052;-67
2023/08/31 12:55:52;;;;;;;7.07;1.80;;;;;;;;;;5026298;28;20495;-69
2023/08/31 12:58:18;;;;;;;9.13;1.85;;;;;;;;;;5022329;28;20517;-68
2023/08/31 13:00:48;;;;;;;5.82;1.88;;;;;;;;;;5024688;28;20053;-68
2023/08/31 13:03:15;;;;;;;6.38;2.03;;;;;;;;;;5026065;28;20072;-68
2023/08/31 13:05:42;;;;;;;4.28;1.88;;;;;;;;;;5025919;28;20041;-69
2023/08/31 13:08:09;;;;;;;5.15;1.90;;;;;;;;;;5024854;28;20442;-68
2023/08/31 13:10:36;;;;;;;6.20;1.70;;;;;;;;;;5025659;28;20056;-68
2023/08/31 13:13:02;;;;;;;4.63;1.92;;;;;;;;;;5025770;28;20055;-68
2023/08/31 13:15:29;;;;;;;6.72;1.77;;;;;;;;;;5025339;28;20049;-68
2023/08/31 13:17:57;;;;;;;6.72;1.73;;;;;;;;;;5025767;28;20488;-69
2023/08/31 13:20:23;;;;;;;4.70;1.80;;;;;;;;;;5024195;28;20422;-68
2023/08/31 13:22:51;;;;;;;5.50;1.83;;;;;;;;;;5023951;28;20059;-69
2023/08/31 13:25:18;;;;;;;5.32;2.05;;;;;;;;;;5024592;28;20067;-69
2023/08/31 13:27:44;;;;;;;4.07;1.90;;;;;;;;;;5023360;28;20065;-69
2023/08/31 13:30:12;;;;;;;6.60;2.15;;;;;;;;;;5023512;28;20064;-69
2023/08/31 13:32:39;;;;;;;4.88;1.90;;;;;;;;;;5024531;28;20053;-68
2023/08/31 13:35:08;;;;;;;6.32;1.95;;;;;;;;;;5024629;28;20038;-68
2023/08/31 13:37:34;;;;;;;6.85;1.90;;;;;;;;;;5025521;28;20321;-69
2023/08/31 13:40:03;;;;;;;3.90;1.67;;;;;;;;;;5024456;28;20049;-68
2023/08/31 13:42:35;;;;;;;5.40;1.75;;;;;;;;;;5023496;28;20464;-69
2023/08/31 13:45:03;;;;;;;3.28;1.50;;;;;;;;;;5025369;28;20037;-69
2023/08/31 13:47:30;;;;;;;4.85;1.98;;;;;;;;;;5024121;28;20073;-67
2023/08/31 13:49:56;;;;;;;4.03;1.83;;;;;;;;;;5025470;28;20049;-68
2023/08/31 13:52:24;;;;;;;6.70;1.88;;;;;;;;;;5024814;28;20037;-68
2023/08/31 13:54:51;;;;;;;4.72;1.80;;;;;;;;;;5025849;28;20518;-68
2023/08/31 13:57:18;;;;;;;6.22;1.85;;;;;;;;;;5018990;28;20041;-69
2023/08/31 13:59:44;;;;;;;2.90;1.60;;;;;;;;;;5022401;28;20049;-68
2023/08/31 14:02:11;;;;;;;6.45;1.90;;;;;;;;;;5023936;28;20046;-69
2023/08/31 14:04:37;;;;;;;3.85;2.20;;;;;;;;;;5024547;28;20049;-69
2023/08/31 14:07:04;;;;;;;3.88;1.90;;;;;;;;;;5024479;28;20268;-69
2023/08/31 14:09:32;;;;;;;4.72;1.70;;;;;;;;;;5024251;28;20611;-69
2023/08/31 14:11:59;;;;;;;4.95;1.98;;;;;;;;;;5025581;28;20046;-69
2023/08/31 14:14:25;;;;;;;4.07;1.88;;;;;;;;;;5023165;28;20047;-69
2023/08/31 14:16:52;;;;;;;7.30;2.10;;;;;;;;;;5024102;28;20048;-70
2023/08/31 14:19:19;;;;;;;6.03;1.80;;;;;;;;;;5026904;28;20041;-69
2023/08/31 14:21:46;;;;;;;4.55;1.80;;;;;;;;;;5025277;28;20411;-69
2023/08/31 14:24:13;;;;;;;5.07;1.67;;;;;;;;;;5024463;28;20045;-67
2023/08/31 14:26:40;;;;;;;3.60;1.70;;;;;;;;;;5022355;28;20418;-67
2023/08/31 14:29:07;;;;;;;3.70;1.95;;;;;;;;;;5022118;28;20407;-68
2023/08/31 14:31:33;;;;;;;6.68;2.42;;;;;;;;;;5019493;28;20490;-69
2023/08/31 14:34:00;;;;;;;4.90;2.10;;;;;;;;;;5024101;28;20484;-69
2023/08/31 14:36:27;;;;;;;3.70;1.70;;;;;;;;;;5024791;28;20140;-68
2023/08/31 14:38:53;;;;;;;4.35;1.90;;;;;;;;;;5024828;28;20053;-69
2023/08/31 14:41:20;;;;;;;3.60;1.70;;;;;;;;;;5023349;28;20046;-68
2023/08/31 14:43:48;;;;;;;3.97;1.83;;;;;;;;;;5023995;28;20048;-69